sensor_id;sensor_type;location;lat;lon;timestamp;P1;durP1;ratioP1;P2;durP2;ratioP2
19776;SDS011;10047;42.490;26.012;2022-12-05T00:01:42;15.27;;;11.85;;
19776;SDS011;10047;42.490;26.012;2022-12-05T00:04:09;16.98;;;13.25;;
19776;SDS011;10047;42.490;26.012;2022-12-05T00:06:36;20.75;;;14.60;;
19776;SDS011;10047;42.490;26.012;2022-12-05T00:09:04;16.67;;;12.80;;
19776;SDS011;10047;42.490;26.012;2022-12-05T00:11:32;15.48;;;10.70;;
19776;SDS011;10047;42.490;26.012;2022-12-05T00:13:59;12.77;;;9.13;;
19776;SDS011;10047;42.490;26.012;2022-12-05T00:16:27;11.30;;;8.65;;
19776;SDS011;10047;42.490;26.012;2022-12-05T00:18:54;12.27;;;8.82;;
19776;SDS011;10047;42.490;26.012;2022-12-05T00:21:21;10.32;;;8.55;;
19776;SDS011;10047;42.490;26.012;2022-12-05T00:23:48;13.00;;;9.40;;
19776;SDS011;10047;42.490;26.012;2022-12-05T00:26:15;11.00;;;8.65;;
19776;SDS011;10047;42.490;26.012;2022-12-05T00:28:40;12.35;;;8.82;;
19776;SDS011;10047;42.490;26.012;2022-12-05T00:31:07;12.35;;;9.38;;
19776;SDS011;10047;42.490;26.012;2022-12-05T00:33:36;20.25;;;12.57;;
19776;SDS011;10047;42.490;26.012;2022-12-05T00:36:07;13.95;;;10.38;;
19776;SDS011;10047;42.490;26.012;2022-12-05T00:38:35;14.65;;;11.07;;
19776;SDS011;10047;42.490;26.012;2022-12-05T00:41:04;14.35;;;11.90;;
19776;SDS011;10047;42.490;26.012;2022-12-05T00:43:31;15.52;;;11.02;;
19776;SDS011;10047;42.490;26.012;2022-12-05T00:46:01;14.40;;;11.85;;
19776;SDS011;10047;42.490;26.012;2022-12-05T00:48:27;16.25;;;13.07;;
19776;SDS011;10047;42.490;26.012;2022-12-05T00:51:00;18.13;;;13.77;;
19776;SDS011;10047;42.490;26.012;2022-12-05T00:53:30;16.48;;;14.57;;
19776;SDS011;10047;42.490;26.012;2022-12-05T00:55:55;17.38;;;14.13;;
19776;SDS011;10047;42.490;26.012;2022-12-05T00:58:25;16.83;;;13.02;;
19776;SDS011;10047;42.490;26.012;2022-12-05T01:00:51;14.57;;;11.35;;
19776;SDS011;10047;42.490;26.012;2022-12-05T01:03:16;15.45;;;10.18;;
19776;SDS011;10047;42.490;26.012;2022-12-05T01:05:41;12.35;;;9.50;;
19776;SDS011;10047;42.490;26.012;2022-12-05T01:08:07;12.70;;;9.90;;
19776;SDS011;10047;42.490;26.012;2022-12-05T01:10:32;12.20;;;9.80;;
19776;SDS011;10047;42.490;26.012;2022-12-05T01:12:58;12.43;;;9.65;;
19776;SDS011;10047;42.490;26.012;2022-12-05T01:15:23;13.23;;;9.63;;
19776;SDS011;10047;42.490;26.012;2022-12-05T01:17:49;9.85;;;8.48;;
19776;SDS011;10047;42.490;26.012;2022-12-05T01:20:14;12.02;;;9.20;;
19776;SDS011;10047;42.490;26.012;2022-12-05T01:22:39;12.05;;;8.52;;
19776;SDS011;10047;42.490;26.012;2022-12-05T01:25:05;14.45;;;9.18;;
19776;SDS011;10047;42.490;26.012;2022-12-05T01:27:38;15.80;;;11.30;;
19776;SDS011;10047;42.490;26.012;2022-12-05T01:30:03;16.52;;;11.30;;
19776;SDS011;10047;42.490;26.012;2022-12-05T01:32:29;15.68;;;12.38;;
19776;SDS011;10047;42.490;26.012;2022-12-05T01:34:55;12.70;;;9.70;;
19776;SDS011;10047;42.490;26.012;2022-12-05T01:37:20;12.32;;;8.65;;
19776;SDS011;10047;42.490;26.012;2022-12-05T01:39:47;13.27;;;9.50;;
19776;SDS011;10047;42.490;26.012;2022-12-05T01:42:12;13.07;;;9.30;;
19776;SDS011;10047;42.490;26.012;2022-12-05T01:47:03;15.57;;;9.85;;
19776;SDS011;10047;42.490;26.012;2022-12-05T01:49:32;13.32;;;8.93;;
19776;SDS011;10047;42.490;26.012;2022-12-05T01:52:02;11.48;;;8.98;;
19776;SDS011;10047;42.490;26.012;2022-12-05T01:54:31;15.45;;;10.40;;
19776;SDS011;10047;42.490;26.012;2022-12-05T01:57:05;13.20;;;9.80;;
19776;SDS011;10047;42.490;26.012;2022-12-05T01:59:35;12.90;;;9.90;;
19776;SDS011;10047;42.490;26.012;2022-12-05T02:02:03;13.10;;;9.77;;
19776;SDS011;10047;42.490;26.012;2022-12-05T02:04:30;14.15;;;10.50;;
19776;SDS011;10047;42.490;26.012;2022-12-05T02:06:59;14.13;;;9.77;;
19776;SDS011;10047;42.490;26.012;2022-12-05T02:09:24;12.35;;;9.18;;
19776;SDS011;10047;42.490;26.012;2022-12-05T02:11:53;11.32;;;8.82;;
19776;SDS011;10047;42.490;26.012;2022-12-05T02:17:50;12.85;;;9.32;;
19776;SDS011;10047;42.490;26.012;2022-12-05T02:20:25;10.68;;;8.32;;
19776;SDS011;10047;42.490;26.012;2022-12-05T02:34:09;11.45;;;8.48;;
19776;SDS011;10047;42.490;26.012;2022-12-05T02:39:14;11.52;;;8.43;;
19776;SDS011;10047;42.490;26.012;2022-12-05T02:42:03;11.80;;;8.70;;
19776;SDS011;10047;42.490;26.012;2022-12-05T02:47:12;12.02;;;9.40;;
19776;SDS011;10047;42.490;26.012;2022-12-05T02:49:41;12.52;;;8.45;;
19776;SDS011;10047;42.490;26.012;2022-12-05T02:52:09;13.55;;;9.48;;
19776;SDS011;10047;42.490;26.012;2022-12-05T02:54:38;11.63;;;9.00;;
19776;SDS011;10047;42.490;26.012;2022-12-05T02:57:06;10.95;;;9.07;;
19776;SDS011;10047;42.490;26.012;2022-12-05T02:59:34;11.05;;;8.43;;
19776;SDS011;10047;42.490;26.012;2022-12-05T03:01:59;10.85;;;8.40;;
19776;SDS011;10047;42.490;26.012;2022-12-05T03:04:25;10.80;;;8.43;;
19776;SDS011;10047;42.490;26.012;2022-12-05T03:09:29;11.13;;;7.70;;
19776;SDS011;10047;42.490;26.012;2022-12-05T03:14:33;10.67;;;7.73;;
19776;SDS011;10047;42.490;26.012;2022-12-05T03:17:05;9.32;;;7.20;;
19776;SDS011;10047;42.490;26.012;2022-12-05T03:22:27;12.07;;;7.90;;
19776;SDS011;10047;42.490;26.012;2022-12-05T03:24:57;10.85;;;8.77;;
19776;SDS011;10047;42.490;26.012;2022-12-05T03:38:00;9.35;;;7.07;;
19776;SDS011;10047;42.490;26.012;2022-12-05T03:48:29;10.40;;;7.70;;
19776;SDS011;10047;42.490;26.012;2022-12-05T03:51:00;9.98;;;7.75;;
19776;SDS011;10047;42.490;26.012;2022-12-05T03:53:29;10.60;;;7.25;;
19776;SDS011;10047;42.490;26.012;2022-12-05T03:56:10;10.50;;;7.15;;
19776;SDS011;10047;42.490;26.012;2022-12-05T03:58:51;13.05;;;7.75;;
19776;SDS011;10047;42.490;26.012;2022-12-05T04:01:22;13.63;;;8.20;;
19776;SDS011;10047;42.490;26.012;2022-12-05T04:03:54;11.98;;;8.80;;
19776;SDS011;10047;42.490;26.012;2022-12-05T04:06:24;14.60;;;9.13;;
19776;SDS011;10047;42.490;26.012;2022-12-05T04:09:00;13.02;;;8.82;;
19776;SDS011;10047;42.490;26.012;2022-12-05T04:11:33;12.18;;;8.93;;
19776;SDS011;10047;42.490;26.012;2022-12-05T04:14:06;13.43;;;9.70;;
19776;SDS011;10047;42.490;26.012;2022-12-05T04:16:39;15.90;;;9.43;;
19776;SDS011;10047;42.490;26.012;2022-12-05T04:22:49;15.80;;;9.88;;
19776;SDS011;10047;42.490;26.012;2022-12-05T04:25:15;14.23;;;10.32;;
19776;SDS011;10047;42.490;26.012;2022-12-05T04:38:56;14.82;;;10.77;;
19776;SDS011;10047;42.490;26.012;2022-12-05T04:41:30;15.80;;;11.13;;
19776;SDS011;10047;42.490;26.012;2022-12-05T04:44:02;18.67;;;11.93;;
19776;SDS011;10047;42.490;26.012;2022-12-05T04:46:31;14.00;;;10.95;;
19776;SDS011;10047;42.490;26.012;2022-12-05T04:48:59;15.07;;;11.88;;
19776;SDS011;10047;42.490;26.012;2022-12-05T04:51:29;15.02;;;11.25;;
19776;SDS011;10047;42.490;26.012;2022-12-05T04:53:59;18.52;;;11.27;;
19776;SDS011;10047;42.490;26.012;2022-12-05T04:56:29;17.85;;;11.77;;
19776;SDS011;10047;42.490;26.012;2022-12-05T04:58:59;17.80;;;12.25;;
19776;SDS011;10047;42.490;26.012;2022-12-05T05:01:26;15.65;;;12.70;;
19776;SDS011;10047;42.490;26.012;2022-12-05T05:04:08;19.20;;;12.75;;
19776;SDS011;10047;42.490;26.012;2022-12-05T05:06:40;20.27;;;16.75;;
19776;SDS011;10047;42.490;26.012;2022-12-05T05:09:07;19.83;;;15.52;;
19776;SDS011;10047;42.490;26.012;2022-12-05T05:11:34;25.17;;;17.17;;
19776;SDS011;10047;42.490;26.012;2022-12-05T05:14:00;34.15;;;24.98;;
19776;SDS011;10047;42.490;26.012;2022-12-05T05:16:27;22.02;;;15.90;;
19776;SDS011;10047;42.490;26.012;2022-12-05T05:18:55;21.30;;;15.93;;
19776;SDS011;10047;42.490;26.012;2022-12-05T05:21:27;17.95;;;13.40;;
19776;SDS011;10047;42.490;26.012;2022-12-05T05:23:53;16.58;;;12.43;;
19776;SDS011;10047;42.490;26.012;2022-12-05T05:26:19;17.80;;;12.88;;
19776;SDS011;10047;42.490;26.012;2022-12-05T05:28:46;22.38;;;13.10;;
19776;SDS011;10047;42.490;26.012;2022-12-05T05:31:13;20.05;;;13.43;;
19776;SDS011;10047;42.490;26.012;2022-12-05T05:33:38;65.85;;;54.38;;
19776;SDS011;10047;42.490;26.012;2022-12-05T05:36:10;133.80;;;119.22;;
19776;SDS011;10047;42.490;26.012;2022-12-05T05:38:38;87.10;;;77.55;;
19776;SDS011;10047;42.490;26.012;2022-12-05T05:41:14;34.22;;;29.05;;
19776;SDS011;10047;42.490;26.012;2022-12-05T05:43:44;29.50;;;18.63;;
19776;SDS011;10047;42.490;26.012;2022-12-05T05:46:18;24.10;;;15.77;;
19776;SDS011;10047;42.490;26.012;2022-12-05T05:48:45;24.10;;;14.13;;
19776;SDS011;10047;42.490;26.012;2022-12-05T05:51:11;24.15;;;16.65;;
19776;SDS011;10047;42.490;26.012;2022-12-05T05:53:38;32.60;;;26.42;;
19776;SDS011;10047;42.490;26.012;2022-12-05T05:56:04;54.20;;;36.22;;
19776;SDS011;10047;42.490;26.012;2022-12-05T05:58:32;39.42;;;27.00;;
19776;SDS011;10047;42.490;26.012;2022-12-05T06:01:05;41.10;;;27.15;;
19776;SDS011;10047;42.490;26.012;2022-12-05T06:03:32;21.42;;;15.70;;
19776;SDS011;10047;42.490;26.012;2022-12-05T06:05:59;22.88;;;14.05;;
19776;SDS011;10047;42.490;26.012;2022-12-05T06:08:31;20.45;;;13.38;;
19776;SDS011;10047;42.490;26.012;2022-12-05T06:10:58;22.55;;;14.85;;
19776;SDS011;10047;42.490;26.012;2022-12-05T06:13:24;31.40;;;19.58;;
19776;SDS011;10047;42.490;26.012;2022-12-05T06:15:50;32.65;;;19.50;;
19776;SDS011;10047;42.490;26.012;2022-12-05T06:18:15;24.27;;;17.02;;
19776;SDS011;10047;42.490;26.012;2022-12-05T06:20:41;18.67;;;14.00;;
19776;SDS011;10047;42.490;26.012;2022-12-05T06:23:07;23.77;;;17.30;;
19776;SDS011;10047;42.490;26.012;2022-12-05T06:25:33;19.65;;;14.70;;
19776;SDS011;10047;42.490;26.012;2022-12-05T06:27:58;16.25;;;13.07;;
19776;SDS011;10047;42.490;26.012;2022-12-05T06:30:23;17.77;;;12.43;;
19776;SDS011;10047;42.490;26.012;2022-12-05T06:32:49;15.98;;;12.18;;
19776;SDS011;10047;42.490;26.012;2022-12-05T06:35:14;21.45;;;13.25;;
19776;SDS011;10047;42.490;26.012;2022-12-05T06:37:41;18.30;;;13.00;;
19776;SDS011;10047;42.490;26.012;2022-12-05T06:40:07;25.33;;;16.48;;
19776;SDS011;10047;42.490;26.012;2022-12-05T06:42:33;26.48;;;16.40;;
19776;SDS011;10047;42.490;26.012;2022-12-05T06:44:59;27.13;;;19.42;;
19776;SDS011;10047;42.490;26.012;2022-12-05T06:47:24;37.40;;;29.58;;
19776;SDS011;10047;42.490;26.012;2022-12-05T06:49:50;40.30;;;30.42;;
19776;SDS011;10047;42.490;26.012;2022-12-05T06:52:15;33.03;;;23.52;;
19776;SDS011;10047;42.490;26.012;2022-12-05T06:54:40;31.40;;;21.55;;
19776;SDS011;10047;42.490;26.012;2022-12-05T06:57:06;46.33;;;30.75;;
19776;SDS011;10047;42.490;26.012;2022-12-05T06:59:31;42.30;;;26.95;;
19776;SDS011;10047;42.490;26.012;2022-12-05T07:01:56;27.77;;;18.88;;
19776;SDS011;10047;42.490;26.012;2022-12-05T07:04:22;25.08;;;16.48;;
19776;SDS011;10047;42.490;26.012;2022-12-05T07:06:48;15.82;;;12.07;;
19776;SDS011;10047;42.490;26.012;2022-12-05T07:09:16;16.38;;;11.52;;
19776;SDS011;10047;42.490;26.012;2022-12-05T07:11:47;14.10;;;11.45;;
19776;SDS011;10047;42.490;26.012;2022-12-05T07:14:14;17.38;;;11.95;;
19776;SDS011;10047;42.490;26.012;2022-12-05T07:16:40;16.40;;;11.05;;
19776;SDS011;10047;42.490;26.012;2022-12-05T07:19:05;16.58;;;12.40;;
19776;SDS011;10047;42.490;26.012;2022-12-05T07:21:31;17.73;;;13.95;;
19776;SDS011;10047;42.490;26.012;2022-12-05T07:23:56;19.05;;;14.60;;
19776;SDS011;10047;42.490;26.012;2022-12-05T07:26:22;24.58;;;19.20;;
19776;SDS011;10047;42.490;26.012;2022-12-05T07:28:49;18.27;;;11.60;;
19776;SDS011;10047;42.490;26.012;2022-12-05T07:31:17;14.80;;;11.13;;
19776;SDS011;10047;42.490;26.012;2022-12-05T07:33:45;13.32;;;10.93;;
19776;SDS011;10047;42.490;26.012;2022-12-05T07:36:12;15.35;;;10.27;;
19776;SDS011;10047;42.490;26.012;2022-12-05T07:38:39;15.65;;;10.40;;
19776;SDS011;10047;42.490;26.012;2022-12-05T07:41:06;13.77;;;9.77;;
19776;SDS011;10047;42.490;26.012;2022-12-05T07:43:41;10.93;;;9.38;;
19776;SDS011;10047;42.490;26.012;2022-12-05T07:46:08;15.38;;;10.07;;
19776;SDS011;10047;42.490;26.012;2022-12-05T07:48:35;15.23;;;11.38;;
19776;SDS011;10047;42.490;26.012;2022-12-05T07:51:01;14.25;;;10.45;;
19776;SDS011;10047;42.490;26.012;2022-12-05T07:53:29;16.02;;;12.35;;
19776;SDS011;10047;42.490;26.012;2022-12-05T07:55:59;15.35;;;12.27;;
19776;SDS011;10047;42.490;26.012;2022-12-05T07:58:28;12.43;;;9.03;;
19776;SDS011;10047;42.490;26.012;2022-12-05T08:00:53;24.90;;;14.48;;
19776;SDS011;10047;42.490;26.012;2022-12-05T08:03:19;15.05;;;10.25;;
19776;SDS011;10047;42.490;26.012;2022-12-05T08:05:44;13.32;;;10.02;;
19776;SDS011;10047;42.490;26.012;2022-12-05T08:08:10;15.88;;;11.05;;
19776;SDS011;10047;42.490;26.012;2022-12-05T08:10:35;19.00;;;13.43;;
19776;SDS011;10047;42.490;26.012;2022-12-05T08:13:01;21.35;;;14.27;;
19776;SDS011;10047;42.490;26.012;2022-12-05T08:15:26;21.52;;;13.90;;
19776;SDS011;10047;42.490;26.012;2022-12-05T08:17:52;18.10;;;13.38;;
19776;SDS011;10047;42.490;26.012;2022-12-05T08:20:17;18.77;;;14.07;;
19776;SDS011;10047;42.490;26.012;2022-12-05T08:22:43;20.45;;;13.52;;
19776;SDS011;10047;42.490;26.012;2022-12-05T08:25:08;16.70;;;12.63;;
19776;SDS011;10047;42.490;26.012;2022-12-05T08:27:34;16.80;;;13.30;;
19776;SDS011;10047;42.490;26.012;2022-12-05T08:29:59;19.33;;;15.18;;
19776;SDS011;10047;42.490;26.012;2022-12-05T08:32:25;18.63;;;14.32;;
19776;SDS011;10047;42.490;26.012;2022-12-05T08:34:51;21.20;;;16.00;;
19776;SDS011;10047;42.490;26.012;2022-12-05T08:37:17;20.83;;;17.10;;
19776;SDS011;10047;42.490;26.012;2022-12-05T08:39:42;19.35;;;15.88;;
19776;SDS011;10047;42.490;26.012;2022-12-05T08:42:07;21.33;;;17.15;;
19776;SDS011;10047;42.490;26.012;2022-12-05T08:44:33;19.02;;;15.50;;
19776;SDS011;10047;42.490;26.012;2022-12-05T08:46:58;15.18;;;13.52;;
19776;SDS011;10047;42.490;26.012;2022-12-05T08:49:24;20.38;;;14.25;;
19776;SDS011;10047;42.490;26.012;2022-12-05T08:51:49;19.05;;;12.35;;
19776;SDS011;10047;42.490;26.012;2022-12-05T08:54:15;16.63;;;12.50;;
19776;SDS011;10047;42.490;26.012;2022-12-05T08:56:40;15.13;;;12.00;;
19776;SDS011;10047;42.490;26.012;2022-12-05T08:59:06;17.27;;;11.77;;
19776;SDS011;10047;42.490;26.012;2022-12-05T09:01:32;16.48;;;11.10;;
19776;SDS011;10047;42.490;26.012;2022-12-05T09:04:00;18.55;;;15.90;;
19776;SDS011;10047;42.490;26.012;2022-12-05T09:06:28;15.50;;;12.68;;
19776;SDS011;10047;42.490;26.012;2022-12-05T09:08:55;19.52;;;13.25;;
19776;SDS011;10047;42.490;26.012;2022-12-05T09:11:24;16.20;;;12.73;;
19776;SDS011;10047;42.490;26.012;2022-12-05T09:13:54;15.60;;;11.68;;
19776;SDS011;10047;42.490;26.012;2022-12-05T09:16:22;16.50;;;12.25;;
19776;SDS011;10047;42.490;26.012;2022-12-05T09:18:51;16.30;;;12.77;;
19776;SDS011;10047;42.490;26.012;2022-12-05T09:21:18;14.23;;;11.93;;
19776;SDS011;10047;42.490;26.012;2022-12-05T09:23:48;16.33;;;12.45;;
19776;SDS011;10047;42.490;26.012;2022-12-05T09:26:16;21.20;;;14.77;;
19776;SDS011;10047;42.490;26.012;2022-12-05T09:28:43;19.30;;;14.75;;
19776;SDS011;10047;42.490;26.012;2022-12-05T09:31:10;15.82;;;13.40;;
19776;SDS011;10047;42.490;26.012;2022-12-05T09:33:37;16.55;;;12.90;;
19776;SDS011;10047;42.490;26.012;2022-12-05T09:36:03;26.30;;;18.25;;
19776;SDS011;10047;42.490;26.012;2022-12-05T09:38:30;14.32;;;12.40;;
19776;SDS011;10047;42.490;26.012;2022-12-05T09:43:51;16.20;;;13.23;;
19776;SDS011;10047;42.490;26.012;2022-12-05T09:46:26;19.33;;;14.60;;
19776;SDS011;10047;42.490;26.012;2022-12-05T09:49:13;20.60;;;15.48;;
19776;SDS011;10047;42.490;26.012;2022-12-05T09:51:40;17.35;;;13.90;;
19776;SDS011;10047;42.490;26.012;2022-12-05T09:54:10;14.75;;;12.45;;
19776;SDS011;10047;42.490;26.012;2022-12-05T09:56:37;16.20;;;12.23;;
19776;SDS011;10047;42.490;26.012;2022-12-05T09:59:04;15.18;;;11.70;;
19776;SDS011;10047;42.490;26.012;2022-12-05T10:15:58;13.70;;;9.90;;
19776;SDS011;10047;42.490;26.012;2022-12-05T10:20:52;21.17;;;12.93;;
19776;SDS011;10047;42.490;26.012;2022-12-05T10:25:50;8.98;;;7.78;;
19776;SDS011;10047;42.490;26.012;2022-12-05T10:28:32;12.32;;;9.30;;
19776;SDS011;10047;42.490;26.012;2022-12-05T10:31:07;31.00;;;18.38;;
19776;SDS011;10047;42.490;26.012;2022-12-05T10:33:39;15.85;;;11.50;;
19776;SDS011;10047;42.490;26.012;2022-12-05T10:36:11;14.30;;;10.75;;
19776;SDS011;10047;42.490;26.012;2022-12-05T10:38:38;13.75;;;10.75;;
19776;SDS011;10047;42.490;26.012;2022-12-05T10:41:05;14.57;;;11.65;;
19776;SDS011;10047;42.490;26.012;2022-12-05T10:43:33;14.43;;;11.70;;
19776;SDS011;10047;42.490;26.012;2022-12-05T10:46:01;12.77;;;9.48;;
19776;SDS011;10047;42.490;26.012;2022-12-05T10:48:27;22.73;;;13.88;;
19776;SDS011;10047;42.490;26.012;2022-12-05T10:50:56;12.93;;;9.73;;
19776;SDS011;10047;42.490;26.012;2022-12-05T10:53:23;12.98;;;8.50;;
19776;SDS011;10047;42.490;26.012;2022-12-05T10:55:51;10.82;;;7.88;;
19776;SDS011;10047;42.490;26.012;2022-12-05T10:58:20;14.38;;;10.45;;
19776;SDS011;10047;42.490;26.012;2022-12-05T11:00:51;13.35;;;10.00;;
19776;SDS011;10047;42.490;26.012;2022-12-05T11:05:58;10.85;;;7.55;;
19776;SDS011;10047;42.490;26.012;2022-12-05T11:08:26;10.35;;;7.32;;
19776;SDS011;10047;42.490;26.012;2022-12-05T11:11:36;10.00;;;7.85;;
19776;SDS011;10047;42.490;26.012;2022-12-05T11:13:54;25.55;;;15.23;;
19776;SDS011;10047;42.490;26.012;2022-12-05T11:16:24;19.23;;;13.13;;
19776;SDS011;10047;42.490;26.012;2022-12-05T11:18:52;10.85;;;7.72;;
19776;SDS011;10047;42.490;26.012;2022-12-05T11:21:18;9.77;;;7.30;;
19776;SDS011;10047;42.490;26.012;2022-12-05T11:23:44;9.25;;;7.55;;
19776;SDS011;10047;42.490;26.012;2022-12-05T11:26:19;7.50;;;6.60;;
19776;SDS011;10047;42.490;26.012;2022-12-05T11:28:59;8.65;;;5.57;;
19776;SDS011;10047;42.490;26.012;2022-12-05T11:31:26;7.35;;;6.47;;
19776;SDS011;10047;42.490;26.012;2022-12-05T11:36:41;21.50;;;14.52;;
19776;SDS011;10047;42.490;26.012;2022-12-05T11:39:11;18.70;;;11.77;;
19776;SDS011;10047;42.490;26.012;2022-12-05T12:00:33;8.90;;;7.63;;
19776;SDS011;10047;42.490;26.012;2022-12-05T12:11:30;6.00;;;4.85;;
19776;SDS011;10047;42.490;26.012;2022-12-05T12:14:05;5.72;;;4.50;;
19776;SDS011;10047;42.490;26.012;2022-12-05T12:27:13;8.13;;;7.25;;
19776;SDS011;10047;42.490;26.012;2022-12-05T12:35:28;5.15;;;4.65;;
19776;SDS011;10047;42.490;26.012;2022-12-05T12:43:33;9.25;;;5.93;;
19776;SDS011;10047;42.490;26.012;2022-12-05T12:51:44;5.20;;;4.65;;
19776;SDS011;10047;42.490;26.012;2022-12-05T13:02:26;7.80;;;6.07;;
19776;SDS011;10047;42.490;26.012;2022-12-05T13:04:59;5.10;;;4.40;;
19776;SDS011;10047;42.490;26.012;2022-12-05T13:07:41;5.63;;;4.78;;
19776;SDS011;10047;42.490;26.012;2022-12-05T13:10:31;9.13;;;6.90;;
19776;SDS011;10047;42.490;26.012;2022-12-05T13:13:00;12.30;;;8.55;;
19776;SDS011;10047;42.490;26.012;2022-12-05T13:15:37;5.43;;;3.88;;
19776;SDS011;10047;42.490;26.012;2022-12-05T13:18:05;3.75;;;3.40;;
19776;SDS011;10047;42.490;26.012;2022-12-05T13:20:38;4.75;;;3.70;;
19776;SDS011;10047;42.490;26.012;2022-12-05T13:23:04;5.85;;;3.92;;
19776;SDS011;10047;42.490;26.012;2022-12-05T13:25:33;5.25;;;4.22;;
19776;SDS011;10047;42.490;26.012;2022-12-05T13:28:04;3.45;;;3.15;;
19776;SDS011;10047;42.490;26.012;2022-12-05T13:30:46;4.43;;;3.80;;
19776;SDS011;10047;42.490;26.012;2022-12-05T13:33:22;5.78;;;4.22;;
19776;SDS011;10047;42.490;26.012;2022-12-05T13:35:53;4.47;;;3.25;;
19776;SDS011;10047;42.490;26.012;2022-12-05T13:38:46;4.35;;;3.90;;
19776;SDS011;10047;42.490;26.012;2022-12-05T13:41:46;4.40;;;4.00;;
19776;SDS011;10047;42.490;26.012;2022-12-05T13:50:13;5.45;;;3.90;;
19776;SDS011;10047;42.490;26.012;2022-12-05T13:52:52;6.30;;;4.57;;
19776;SDS011;10047;42.490;26.012;2022-12-05T13:57:54;5.63;;;4.90;;
19776;SDS011;10047;42.490;26.012;2022-12-05T14:02:54;5.15;;;3.03;;
19776;SDS011;10047;42.490;26.012;2022-12-05T14:15:45;14.52;;;12.20;;
19776;SDS011;10047;42.490;26.012;2022-12-05T14:23:26;10.07;;;8.80;;
19776;SDS011;10047;42.490;26.012;2022-12-05T14:26:14;7.80;;;6.80;;
19776;SDS011;10047;42.490;26.012;2022-12-05T14:34:15;8.35;;;6.75;;
19776;SDS011;10047;42.490;26.012;2022-12-05T14:39:37;14.00;;;9.80;;
19776;SDS011;10047;42.490;26.012;2022-12-05T14:42:16;10.00;;;8.68;;
19776;SDS011;10047;42.490;26.012;2022-12-05T14:44:47;11.45;;;9.32;;
19776;SDS011;10047;42.490;26.012;2022-12-05T14:47:25;15.45;;;12.45;;
19776;SDS011;10047;42.490;26.012;2022-12-05T14:49:54;14.65;;;12.50;;
19776;SDS011;10047;42.490;26.012;2022-12-05T14:52:38;16.75;;;14.07;;
19776;SDS011;10047;42.490;26.012;2022-12-05T14:55:09;13.38;;;11.98;;
19776;SDS011;10047;42.490;26.012;2022-12-05T14:57:43;10.70;;;8.35;;
19776;SDS011;10047;42.490;26.012;2022-12-05T15:00:16;8.88;;;7.70;;
19776;SDS011;10047;42.490;26.012;2022-12-05T15:02:46;8.63;;;7.72;;
19776;SDS011;10047;42.490;26.012;2022-12-05T15:05:22;8.10;;;7.28;;
19776;SDS011;10047;42.490;26.012;2022-12-05T15:07:51;8.88;;;7.85;;
19776;SDS011;10047;42.490;26.012;2022-12-05T15:10:28;8.38;;;7.43;;
19776;SDS011;10047;42.490;26.012;2022-12-05T15:12:58;9.15;;;8.13;;
19776;SDS011;10047;42.490;26.012;2022-12-05T15:20:58;15.40;;;12.75;;
19776;SDS011;10047;42.490;26.012;2022-12-05T15:23:45;63.28;;;38.22;;
19776;SDS011;10047;42.490;26.012;2022-12-05T15:26:16;49.22;;;33.85;;
19776;SDS011;10047;42.490;26.012;2022-12-05T15:29:00;33.05;;;23.77;;
19776;SDS011;10047;42.490;26.012;2022-12-05T15:31:29;22.17;;;18.70;;
19776;SDS011;10047;42.490;26.012;2022-12-05T15:33:57;42.03;;;37.72;;
19776;SDS011;10047;42.490;26.012;2022-12-05T15:36:32;25.23;;;20.88;;
19776;SDS011;10047;42.490;26.012;2022-12-05T15:41:30;16.33;;;14.35;;
19776;SDS011;10047;42.490;26.012;2022-12-05T15:43:56;20.85;;;17.58;;
19776;SDS011;10047;42.490;26.012;2022-12-05T15:46:23;19.25;;;15.95;;
19776;SDS011;10047;42.490;26.012;2022-12-05T15:48:51;18.92;;;17.02;;
19776;SDS011;10047;42.490;26.012;2022-12-05T15:51:24;13.70;;;12.20;;
19776;SDS011;10047;42.490;26.012;2022-12-05T15:56:39;10.45;;;9.23;;
19776;SDS011;10047;42.490;26.012;2022-12-05T15:59:12;9.93;;;8.93;;
19776;SDS011;10047;42.490;26.012;2022-12-05T16:01:44;13.90;;;10.85;;
19776;SDS011;10047;42.490;26.012;2022-12-05T16:04:21;11.40;;;10.02;;
19776;SDS011;10047;42.490;26.012;2022-12-05T16:07:05;13.90;;;11.57;;
19776;SDS011;10047;42.490;26.012;2022-12-05T16:09:36;14.30;;;10.57;;
19776;SDS011;10047;42.490;26.012;2022-12-05T16:12:05;11.55;;;9.98;;
19776;SDS011;10047;42.490;26.012;2022-12-05T16:14:39;12.02;;;8.27;;
19776;SDS011;10047;42.490;26.012;2022-12-05T16:17:07;15.52;;;8.80;;
19776;SDS011;10047;42.490;26.012;2022-12-05T16:19:39;9.35;;;8.23;;
19776;SDS011;10047;42.490;26.012;2022-12-05T16:24:48;9.77;;;8.77;;
19776;SDS011;10047;42.490;26.012;2022-12-05T16:27:23;13.48;;;11.07;;
19776;SDS011;10047;42.490;26.012;2022-12-05T16:32:35;14.90;;;12.18;;
19776;SDS011;10047;42.490;26.012;2022-12-05T16:35:01;13.18;;;11.77;;
19776;SDS011;10047;42.490;26.012;2022-12-05T16:37:27;12.57;;;11.18;;
19776;SDS011;10047;42.490;26.012;2022-12-05T16:39:54;14.85;;;12.90;;
19776;SDS011;10047;42.490;26.012;2022-12-05T16:42:24;16.67;;;14.88;;
19776;SDS011;10047;42.490;26.012;2022-12-05T16:44:54;16.30;;;13.90;;
19776;SDS011;10047;42.490;26.012;2022-12-05T16:52:50;16.67;;;14.32;;
19776;SDS011;10047;42.490;26.012;2022-12-05T16:55:44;16.88;;;14.68;;
19776;SDS011;10047;42.490;26.012;2022-12-05T16:58:10;17.00;;;13.43;;
19776;SDS011;10047;42.490;26.012;2022-12-05T17:00:43;15.75;;;13.38;;
19776;SDS011;10047;42.490;26.012;2022-12-05T17:03:12;14.63;;;13.07;;
19776;SDS011;10047;42.490;26.012;2022-12-05T17:05:38;18.23;;;14.85;;
19776;SDS011;10047;42.490;26.012;2022-12-05T17:08:04;13.73;;;11.88;;
19776;SDS011;10047;42.490;26.012;2022-12-05T17:10:29;16.13;;;12.95;;
19776;SDS011;10047;42.490;26.012;2022-12-05T17:12:55;15.90;;;13.23;;
19776;SDS011;10047;42.490;26.012;2022-12-05T17:15:24;14.80;;;12.02;;
19776;SDS011;10047;42.490;26.012;2022-12-05T17:17:49;14.68;;;11.63;;
19776;SDS011;10047;42.490;26.012;2022-12-05T17:20:15;13.93;;;11.13;;
19776;SDS011;10047;42.490;26.012;2022-12-05T17:22:41;15.00;;;11.45;;
19776;SDS011;10047;42.490;26.012;2022-12-05T17:25:16;11.55;;;9.93;;
19776;SDS011;10047;42.490;26.012;2022-12-05T17:27:46;12.27;;;9.43;;
19776;SDS011;10047;42.490;26.012;2022-12-05T17:30:12;15.30;;;10.15;;
19776;SDS011;10047;42.490;26.012;2022-12-05T17:32:37;11.25;;;8.93;;
19776;SDS011;10047;42.490;26.012;2022-12-05T17:35:10;13.73;;;10.25;;
19776;SDS011;10047;42.490;26.012;2022-12-05T17:37:40;14.18;;;10.52;;
19776;SDS011;10047;42.490;26.012;2022-12-05T17:40:05;16.88;;;11.82;;
19776;SDS011;10047;42.490;26.012;2022-12-05T17:42:31;15.68;;;11.48;;
19776;SDS011;10047;42.490;26.012;2022-12-05T17:44:57;16.10;;;11.40;;
19776;SDS011;10047;42.490;26.012;2022-12-05T17:47:22;18.42;;;13.20;;
19776;SDS011;10047;42.490;26.012;2022-12-05T17:49:47;15.20;;;11.23;;
19776;SDS011;10047;42.490;26.012;2022-12-05T17:52:13;17.25;;;13.45;;
19776;SDS011;10047;42.490;26.012;2022-12-05T17:54:39;27.88;;;18.92;;
19776;SDS011;10047;42.490;26.012;2022-12-05T17:57:04;18.65;;;13.20;;
19776;SDS011;10047;42.490;26.012;2022-12-05T17:59:29;22.77;;;16.70;;